Terminal Aerodrome Forecast
Issued by NWS

Home | Current Version | Previous Version | Text Only | Print | Product List | Glossary On
Versions: 1 2 3 4 5 6 7 8 9 10 11 12 13 14 15
000
FTUS43 KEAX 182300
TAFSTJ
TAF
KSTJ 182320Z 1900/1924 13007KT P6SM BKN060
     FM190300 15006KT P6SM SCT050
     FM191000 19004KT 6SM -SHRA BR VCTS OVC025CB
     FM191500 31007KT P6SM -RA VCTS OVC035CB=

USA.gov is the U.S. government's official web portal to all federal, state and local government web resources and services.